Impacts METAR Board INFO
IDs:

KMIA - Miami Intl, FL, US

Updated at: 0904 UTC 18 Dec 2017
Potential Impact None Slight Moderate High
Time17/21Z 17/22Z 17/23Z 18/00Z 18/01Z 18/02Z 18/03Z 18/04Z 18/05Z 18/06Z 18/07Z 18/08Z 18/09Z
VIS10 10 10 10 10 10 10 10 10 10 10 10 10
CIG41 41 41 49 -- -- 55 250 250 250 250 250 250
CoverBKNBKNBKNBKNSCTSCTBKNBKNBKNBKNBKNBKNBKN
FltCatVFRVFRVFRVFRVFRVFRVFRVFRVFRVFRVFRVFRVFR
WX--------------------------
WDir1101101208012090808011011010011090
WSpd10 9 8 6 5 5 5 4 5 5 3 4 3
WGst-- -- -- -- -- -- -- -- -- -- -- -- --
Raw hourly METARs
KMIA 172053Z 11010KT 10SM SCT030 BKN041 BKN250 26/20 A3017 RMK AO2 SLP218 T02610200 55005
KMIA 172153Z 11009KT 10SM SCT027 BKN041 BKN250 26/21 A3018 RMK AO2 SLP220 T02610206
KMIA 172253Z 12008KT 10SM FEW024 BKN041 BKN250 25/21 A3019 RMK AO2 SLP223 T02500206
KMIA 172353Z 08006KT 10SM FEW024 BKN049 BKN250 25/21 A3020 RMK AO2 SLP226 T02500206 10278 20222 53008
KMIA 180053Z 12005KT 10SM FEW024 SCT055 SCT250 25/21 A3021 RMK AO2 SLP231 T02500206
KMIA 180153Z 09005KT 10SM FEW041 SCT055 SCT250 24/21 A3022 RMK AO2 SLP234 T02440211
KMIA 180253Z 08005KT 10SM FEW042 BKN055 BKN250 24/22 A3023 RMK AO2 SLP237 T02440217 51011
KMIA 180353Z 08004KT 10SM FEW040 SCT055 BKN250 24/22 A3023 RMK AO2 SLP236 T02390217
KMIA 180453Z 11005KT 10SM FEW040 SCT055 BKN250 24/22 A3022 RMK AO2 SLP232 T02390217 402830194
KMIA 180553Z 11005KT 10SM FEW040 FEW055 BKN250 23/22 A3020 RMK AO2 SLP228 T02330217 10256 20228 58009
KMIA 180653Z 10003KT 10SM FEW040 FEW055 BKN250 23/21 A3020 RMK AO2 SLP225 T02280211
KMIA 180753Z 11004KT 10SM FEW040 FEW055 BKN250 23/21 A3019 RMK AO2 SLP222 T02280211
KMIA 180853Z 09003KT 10SM FEW020 FEW055 BKN250 23/21 A3019 RMK AO2 SLP224 T02280211 55004